createdAt,value
2022-10-21T00:01:06.924Z,23.30
2022-10-21T00:03:38.806Z,23.40
2022-10-21T00:06:09.227Z,23.60
2022-10-21T00:08:38.703Z,22.90
2022-10-21T00:11:09.466Z,22.10
2022-10-21T00:13:39.579Z,21.80
2022-10-21T00:16:12.192Z,20.30
2022-10-21T00:18:41.978Z,20.30
2022-10-21T00:21:15.739Z,21.80
2022-10-21T00:23:44.646Z,22.60
2022-10-21T00:26:14.115Z,22.90
2022-10-21T00:28:42.943Z,21.30
2022-10-21T00:31:13.258Z,19.20
2022-10-21T00:33:42.354Z,21.00
2022-10-21T00:36:15.234Z,19.80
2022-10-21T00:38:45.748Z,20.90
2022-10-21T00:41:16.681Z,19.30
2022-10-21T00:44:07.610Z,22.40
2022-10-21T00:46:40.034Z,20.40
2022-10-21T00:49:16.889Z,20.20
2022-10-21T00:51:48.098Z,19.10
2022-10-21T00:54:18.003Z,19.20
2022-10-21T00:56:48.261Z,20.00
2022-10-21T00:59:17.741Z,21.50
2022-10-21T01:01:46.035Z,21.80
2022-10-21T01:04:14.354Z,21.90
2022-10-21T01:06:44.100Z,18.80
2022-10-21T01:09:14.049Z,16.90
2022-10-21T01:11:46.792Z,14.30
2022-10-21T01:14:42.954Z,13.50
2022-10-21T01:17:44.589Z,17.40
2022-10-21T01:20:24.069Z,17.20
2022-10-21T01:23:07.455Z,16.80
2022-10-21T01:25:56.838Z,20.40
2022-10-21T01:28:25.096Z,20.00
2022-10-21T01:30:58.029Z,18.70
2022-10-21T01:33:40.344Z,20.20
2022-10-21T01:36:24.578Z,21.60
2022-10-21T01:39:03.633Z,20.80
2022-10-21T01:41:48.702Z,22.00
2022-10-21T01:44:29.695Z,22.10
2022-10-21T01:47:02.534Z,21.90
2022-10-21T01:49:37.003Z,22.50
2022-10-21T01:52:06.721Z,22.70
2022-10-21T01:54:41.058Z,21.40
2022-10-21T01:57:13.693Z,20.70
2022-10-21T01:59:44.450Z,21.00
2022-10-21T02:02:16.097Z,21.60
2022-10-21T02:04:47.916Z,22.90
2022-10-21T02:07:16.117Z,23.60
2022-10-21T02:09:44.406Z,23.00
2022-10-21T02:12:13.848Z,21.20
2022-10-21T02:14:48.637Z,21.90
2022-10-21T02:17:20.066Z,21.50
2022-10-21T02:19:48.409Z,22.00
2022-10-21T02:22:21.126Z,20.80
2022-10-21T02:24:54.201Z,22.20
2022-10-21T02:27:23.483Z,21.50
2022-10-21T02:29:56.034Z,20.50
2022-10-21T02:32:47.765Z,22.00
2022-10-21T02:35:34.030Z,22.10
2022-10-21T02:38:05.624Z,22.40
2022-10-21T02:40:43.046Z,19.80
2022-10-21T02:43:44.278Z,21.20
2022-10-21T02:46:14.722Z,20.30
2022-10-21T02:48:47.998Z,21.70
2022-10-21T02:51:16.661Z,23.30
2022-10-21T02:53:45.054Z,21.10
2022-10-21T02:56:13.293Z,20.70
2022-10-21T02:58:41.614Z,21.60
2022-10-21T03:01:09.904Z,20.60
2022-10-21T03:03:38.149Z,20.10
2022-10-21T03:06:07.129Z,18.90
2022-10-21T03:08:35.445Z,20.50
2022-10-21T03:11:03.933Z,19.00
2022-10-21T03:13:32.274Z,19.10
2022-10-21T03:16:00.608Z,17.60
2022-10-21T03:18:28.955Z,19.80
2022-10-21T03:20:57.338Z,20.10
2022-10-21T03:23:25.650Z,21.00
2022-10-21T03:25:53.897Z,18.80
2022-10-21T03:28:22.206Z,19.10
2022-10-21T03:30:50.470Z,19.30
2022-10-21T03:33:18.691Z,19.40
2022-10-21T03:35:47.067Z,17.80
2022-10-21T03:38:15.360Z,18.60
2022-10-21T03:40:43.581Z,18.30
2022-10-21T03:43:11.869Z,18.90
2022-10-21T03:45:40.121Z,18.80
2022-10-21T03:48:08.546Z,18.30
2022-10-21T03:50:36.847Z,21.30
2022-10-21T03:53:13.693Z,18.80
2022-10-21T03:55:42.218Z,19.40
2022-10-21T03:58:10.403Z,19.60
2022-10-21T04:00:38.835Z,22.80
2022-10-21T04:03:07.146Z,24.40
2022-10-21T04:05:35.407Z,62.90
2022-10-21T04:08:03.735Z,48.90
2022-10-21T04:10:31.977Z,42.10
2022-10-21T04:13:00.178Z,41.50
2022-10-21T04:15:28.489Z,32.20
2022-10-21T04:17:56.826Z,33.60
2022-10-21T04:20:25.095Z,30.20
2022-10-21T04:22:53.346Z,26.80
2022-10-21T04:25:21.646Z,27.30
2022-10-21T04:27:49.947Z,24.60
2022-10-21T04:30:18.287Z,25.50
2022-10-21T04:32:47.257Z,25.50
2022-10-21T04:35:15.555Z,25.60
2022-10-21T04:37:44.360Z,27.90
2022-10-21T04:40:13.021Z,24.60
2022-10-21T04:42:41.433Z,23.40
2022-10-21T04:45:10.257Z,23.10
2022-10-21T04:47:38.876Z,21.00
2022-10-21T04:50:07.691Z,23.80
2022-10-21T04:52:36.225Z,21.70
2022-10-21T04:55:05.497Z,23.40
2022-10-21T04:57:33.846Z,20.60
2022-10-21T05:00:02.378Z,22.50
2022-10-21T05:02:30.817Z,21.00
2022-10-21T05:04:59.137Z,23.50
2022-10-21T05:07:27.917Z,20.10
2022-10-21T05:09:56.291Z,26.50
2022-10-21T05:12:24.575Z,24.30
2022-10-21T05:14:52.854Z,23.10
2022-10-21T05:17:21.170Z,23.80
2022-10-21T05:19:49.391Z,29.20
2022-10-21T05:22:17.705Z,26.80
2022-10-21T05:24:46.577Z,26.20
2022-10-21T05:27:14.950Z,23.70
2022-10-21T05:29:43.211Z,25.80
2022-10-21T05:32:11.554Z,26.80
2022-10-21T05:34:39.765Z,26.00
2022-10-21T05:37:08.078Z,26.60
2022-10-21T05:39:36.488Z,23.70
2022-10-21T05:42:04.824Z,24.70
2022-10-21T05:44:33.033Z,24.50
2022-10-21T05:47:01.304Z,23.20
2022-10-21T05:49:29.526Z,23.90
2022-10-21T05:51:57.965Z,25.00
2022-10-21T05:54:26.220Z,24.80
2022-10-21T05:56:58.281Z,24.20
2022-10-21T05:59:27.697Z,31.50
2022-10-21T06:01:55.908Z,30.30
2022-10-21T06:04:24.253Z,30.60
2022-10-21T06:06:52.557Z,26.10
2022-10-21T06:09:20.830Z,23.90
2022-10-21T06:11:49.153Z,25.70
2022-10-21T06:14:17.529Z,25.80
2022-10-21T06:16:45.879Z,24.90
2022-10-21T06:19:14.293Z,26.50
2022-10-21T06:21:42.610Z,24.20
2022-10-21T06:24:10.878Z,27.10
2022-10-21T06:26:39.102Z,27.30
2022-10-21T06:29:07.497Z,28.10
2022-10-21T06:31:35.743Z,28.00
2022-10-21T06:34:04.238Z,28.70
2022-10-21T06:36:32.634Z,29.30
2022-10-21T06:39:00.931Z,30.60
2022-10-21T06:41:29.179Z,31.10
2022-10-21T06:43:57.642Z,33.90
2022-10-21T06:46:26.071Z,37.10
2022-10-21T06:48:54.310Z,35.30
2022-10-21T06:51:24.399Z,31.80
2022-10-21T06:53:58.430Z,31.50
2022-10-21T06:56:27.915Z,32.10
2022-10-21T06:58:58.129Z,29.00
2022-10-21T07:01:35.288Z,30.30
2022-10-21T07:04:10.504Z,29.00
2022-10-21T07:06:38.902Z,31.00
2022-10-21T07:09:08.941Z,29.60
2022-10-21T07:11:37.288Z,29.50
2022-10-21T07:14:05.784Z,29.90
2022-10-21T07:16:36.846Z,30.90
2022-10-21T07:19:06.059Z,30.50
2022-10-21T07:21:34.651Z,31.40
2022-10-21T07:24:02.998Z,29.90
2022-10-21T07:26:33.494Z,28.80
2022-10-21T07:29:02.497Z,31.10
2022-10-21T07:31:37.326Z,31.60
2022-10-21T07:34:08.287Z,33.20
2022-10-21T07:36:42.538Z,31.70
2022-10-21T07:39:14.185Z,29.90
2022-10-21T07:41:45.753Z,33.60
2022-10-21T07:44:14.701Z,32.90
2022-10-21T07:46:44.267Z,34.40
2022-10-21T07:49:13.451Z,34.70
2022-10-21T07:51:43.220Z,34.50
2022-10-21T07:54:12.588Z,32.50
2022-10-21T07:56:47.319Z,32.20
2022-10-21T07:59:17.550Z,31.00
2022-10-21T08:04:24.696Z,34.60
2022-10-21T08:06:53.070Z,31.50
2022-10-21T08:09:22.308Z,34.30
2022-10-21T08:11:50.535Z,35.00
2022-10-21T08:14:18.841Z,32.70
2022-10-21T08:16:51.746Z,31.80
2022-10-21T08:19:24.163Z,33.60
2022-10-21T08:21:52.501Z,33.00
2022-10-21T08:24:20.758Z,34.20
2022-10-21T08:26:49.752Z,32.70
2022-10-21T08:29:18.203Z,31.20
2022-10-21T08:31:46.694Z,32.90
2022-10-21T08:34:14.951Z,31.40
2022-10-21T08:36:43.308Z,32.50
2022-10-21T08:39:11.540Z,31.90
2022-10-21T08:42:07.812Z,33.90
2022-10-21T08:44:43.027Z,30.80
2022-10-21T08:49:52.161Z,27.90
2022-10-21T08:52:26.195Z,28.80
2022-10-21T08:55:01.406Z,28.30
2022-10-21T08:57:34.823Z,26.10
2022-10-21T09:00:22.291Z,26.90
2022-10-21T09:03:19.718Z,28.10
2022-10-21T09:05:54.274Z,28.60
2022-10-21T09:08:38.044Z,28.30
2022-10-21T09:11:20.105Z,26.70
2022-10-21T09:13:56.173Z,25.20
2022-10-21T09:16:40.257Z,24.60
2022-10-21T09:19:44.000Z,21.70
2022-10-21T09:22:35.878Z,20.00
2022-10-21T09:25:16.508Z,22.10
2022-10-21T09:27:55.474Z,20.10
2022-10-21T09:30:25.325Z,17.90
2022-10-21T09:32:59.233Z,18.30
2022-10-21T09:35:36.718Z,18.60
2022-10-21T09:38:19.674Z,17.20
2022-10-21T09:40:52.297Z,22.50
2022-10-21T09:43:25.196Z,26.30
2022-10-21T09:45:53.758Z,17.50
2022-10-21T09:49:08.120Z,20.40
2022-10-21T09:51:40.372Z,14.90
2022-10-21T09:54:13.695Z,14.00
2022-10-21T09:56:58.957Z,7.20
2022-10-21T10:02:14.484Z,5.60
2022-10-21T10:04:42.867Z,5.20
2022-10-21T10:07:40.438Z,6.30
2022-10-21T10:10:34.224Z,5.10
2022-10-21T10:13:02.446Z,6.10
2022-10-21T10:15:37.604Z,4.60
2022-10-21T10:18:19.878Z,5.50
2022-10-21T10:21:05.092Z,4.10
2022-10-21T10:23:46.946Z,4.00
2022-10-21T10:26:22.721Z,4.50
2022-10-21T10:28:54.274Z,4.30
2022-10-21T10:31:32.584Z,3.70
2022-10-21T10:34:07.884Z,4.60
2022-10-21T10:36:40.224Z,4.10
2022-10-21T10:39:23.499Z,4.30
2022-10-21T10:41:52.762Z,4.60
2022-10-21T10:44:30.025Z,4.60
2022-10-21T10:47:01.187Z,4.30
2022-10-21T10:49:40.246Z,4.50
2022-10-21T10:52:11.314Z,4.90
2022-10-21T10:54:41.999Z,4.60
2022-10-21T10:57:18.901Z,4.10
2022-10-21T11:00:19.541Z,4.70
2022-10-21T11:03:00.529Z,4.90
2022-10-21T11:05:37.709Z,4.30
2022-10-21T11:08:15.622Z,4.20
2022-10-21T11:10:48.308Z,4.10
2022-10-21T11:13:25.096Z,4.60
2022-10-21T11:16:05.942Z,4.60
2022-10-21T11:18:39.879Z,4.80
2022-10-21T11:21:32.660Z,4.50
2022-10-21T11:24:03.844Z,4.50
2022-10-21T11:26:56.306Z,5.30
2022-10-21T11:29:36.611Z,4.00
2022-10-21T11:32:12.478Z,4.30
2022-10-21T11:34:53.280Z,4.80
2022-10-21T11:37:39.863Z,4.30
2022-10-21T11:40:19.847Z,4.50
2022-10-21T11:42:51.664Z,4.90
2022-10-21T11:45:33.267Z,4.50
2022-10-21T11:48:25.994Z,5.10
2022-10-21T11:51:23.055Z,5.30
2022-10-21T11:54:01.217Z,4.80
2022-10-21T11:56:47.627Z,4.20
2022-10-21T11:59:33.919Z,4.60
2022-10-21T12:02:25.365Z,4.60
2022-10-21T12:04:59.510Z,4.90
2022-10-21T12:07:59.541Z,5.00
2022-10-21T12:10:33.599Z,5.00
2022-10-21T12:13:15.514Z,5.10
2022-10-21T12:15:49.569Z,4.30
2022-10-21T12:18:20.930Z,5.60
2022-10-21T12:20:52.832Z,4.20
2022-10-21T12:23:24.846Z,4.70
2022-10-21T12:26:04.788Z,3.90
2022-10-21T12:28:43.005Z,4.20
2022-10-21T12:32:05.619Z,4.00
2022-10-21T12:34:34.393Z,4.40
2022-10-21T12:37:02.643Z,4.10
2022-10-21T12:39:33.918Z,4.40
2022-10-21T12:42:06.215Z,4.30
2022-10-21T12:44:36.748Z,4.70
2022-10-21T12:47:23.645Z,4.70
2022-10-21T12:50:07.161Z,4.10
2022-10-21T12:52:38.544Z,4.40
2022-10-21T12:55:19.441Z,5.30
2022-10-21T12:57:58.156Z,4.70
2022-10-21T13:00:29.426Z,4.50
2022-10-21T13:03:06.517Z,4.40
2022-10-21T13:05:37.400Z,4.50
2022-10-21T13:08:23.058Z,4.10
2022-10-21T13:11:06.783Z,3.80
2022-10-21T13:13:43.253Z,4.10
2022-10-21T13:16:20.563Z,4.90
2022-10-21T13:19:00.273Z,4.90
2022-10-21T13:21:48.116Z,3.90
2022-10-21T13:24:23.877Z,5.00
2022-10-21T13:26:58.389Z,5.80
2022-10-21T13:29:39.415Z,5.70
2022-10-21T13:32:14.930Z,6.50
2022-10-21T13:34:49.094Z,6.20
2022-10-21T13:37:35.028Z,9.00
2022-10-21T13:40:13.719Z,6.90
2022-10-21T13:43:07.085Z,7.50
2022-10-21T13:48:18.543Z,10.60
2022-10-21T13:50:49.557Z,10.40
2022-10-21T13:53:21.956Z,11.00
2022-10-21T13:55:55.844Z,11.00
2022-10-21T13:58:25.726Z,9.20
2022-10-21T14:00:57.897Z,8.50
2022-10-21T14:03:28.163Z,7.50
2022-10-21T14:06:01.673Z,7.80
2022-10-21T14:08:33.525Z,9.90
2022-10-21T14:11:23.153Z,12.90
2022-10-21T14:13:51.727Z,15.30
2022-10-21T14:16:29.178Z,16.90
2022-10-21T14:18:58.294Z,10.90
2022-10-21T14:21:29.626Z,11.00
2022-10-21T14:23:58.177Z,8.80
2022-10-21T14:26:31.000Z,7.90
2022-10-21T14:29:01.149Z,7.40
2022-10-21T14:31:29.812Z,7.70
2022-10-21T14:33:58.263Z,7.20
2022-10-21T14:36:27.892Z,6.80
2022-10-21T14:39:06.663Z,7.30
2022-10-21T14:41:37.719Z,6.40
2022-10-21T14:44:26.702Z,7.10
2022-10-21T14:46:55.315Z,7.50
2022-10-21T14:49:27.750Z,7.70
2022-10-21T14:52:05.731Z,7.10
2022-10-21T14:54:45.764Z,8.30
2022-10-21T14:57:32.200Z,6.60
2022-10-21T15:00:01.600Z,6.60
2022-10-21T15:02:34.378Z,8.00
2022-10-21T15:05:05.822Z,7.30
2022-10-21T15:07:36.890Z,8.20
2022-10-21T15:10:05.442Z,8.50
2022-10-21T15:12:52.742Z,17.40
2022-10-21T15:15:54.054Z,16.10
2022-10-21T15:18:26.875Z,17.60
2022-10-21T15:21:08.575Z,17.90
2022-10-21T15:23:49.832Z,18.10
2022-10-21T15:26:31.292Z,10.60
2022-10-21T15:28:59.775Z,8.20
2022-10-21T15:31:29.409Z,9.60
2022-10-21T15:33:58.769Z,9.30
2022-10-21T15:36:26.937Z,11.00
2022-10-21T15:38:55.503Z,13.90
2022-10-21T15:41:25.571Z,12.90
2022-10-21T15:43:53.752Z,14.90
2022-10-21T15:46:22.019Z,13.10
2022-10-21T15:48:50.178Z,12.40
2022-10-21T15:51:18.541Z,13.00
2022-10-21T15:53:46.955Z,13.70
2022-10-21T15:56:17.958Z,13.30
2022-10-21T15:58:46.759Z,14.40
2022-10-21T16:01:17.352Z,15.70
2022-10-21T16:03:45.860Z,17.50
2022-10-21T16:06:19.873Z,16.60
2022-10-21T16:08:49.527Z,16.50
2022-10-21T16:11:29.599Z,16.50
2022-10-21T16:14:10.192Z,22.00
2022-10-21T16:16:41.089Z,30.80
2022-10-21T16:19:09.466Z,31.00
2022-10-21T16:21:37.715Z,27.10
2022-10-21T16:24:06.348Z,23.60
2022-10-21T16:26:40.024Z,24.90
2022-10-21T16:29:20.532Z,22.20
2022-10-21T16:31:49.152Z,24.50
2022-10-21T16:34:17.417Z,17.90
2022-10-21T16:36:45.617Z,18.10
2022-10-21T16:39:16.796Z,31.90
2022-10-21T16:41:45.227Z,53.00
2022-10-21T16:44:13.571Z,63.60
2022-10-21T16:46:54.422Z,46.40
2022-10-21T16:49:25.842Z,88.40
2022-10-21T16:51:54.710Z,79.40
2022-10-21T16:54:23.895Z,64.00
2022-10-21T16:56:55.033Z,58.10
2022-10-21T16:59:23.921Z,55.40
2022-10-21T17:01:52.411Z,42.90
2022-10-21T17:04:20.664Z,46.80
2022-10-21T17:06:49.442Z,48.80
2022-10-21T17:09:19.480Z,58.40
2022-10-21T17:11:47.775Z,46.70
2022-10-21T17:14:19.919Z,46.20
2022-10-21T17:16:48.564Z,42.90
2022-10-21T17:19:16.920Z,40.00
2022-10-21T17:21:45.760Z,34.90
2022-10-21T17:24:16.120Z,34.60
2022-10-21T17:26:45.529Z,35.80
2022-10-21T17:29:13.926Z,50.40
2022-10-21T17:31:42.770Z,58.80
2022-10-21T17:34:24.874Z,50.70
2022-10-21T17:36:53.243Z,43.90
2022-10-21T17:39:21.854Z,44.00
2022-10-21T17:41:50.194Z,42.90
2022-10-21T17:44:18.831Z,39.00
2022-10-21T17:46:49.493Z,42.90
2022-10-21T17:49:17.950Z,48.30
2022-10-21T17:51:46.282Z,41.70
2022-10-21T17:54:14.579Z,39.90
2022-10-21T17:56:43.078Z,36.90
2022-10-21T17:59:11.759Z,38.10
2022-10-21T18:01:40.113Z,38.70
2022-10-21T18:04:11.445Z,40.80
2022-10-21T18:06:40.109Z,40.70
2022-10-21T18:09:09.078Z,42.90
2022-10-21T18:11:37.451Z,47.60
2022-10-21T18:14:05.894Z,51.60
2022-10-21T18:16:35.024Z,49.60
2022-10-21T18:19:04.239Z,48.30
2022-10-21T18:21:32.575Z,47.00
2022-10-21T18:24:00.875Z,44.30
2022-10-21T18:26:31.607Z,36.70
2022-10-21T18:29:02.382Z,32.60
2022-10-21T18:31:33.851Z,29.90
2022-10-21T18:34:05.082Z,24.00
2022-10-21T18:36:33.663Z,25.70
2022-10-21T18:39:01.955Z,28.20
2022-10-21T18:41:30.585Z,30.50
2022-10-21T18:44:04.875Z,21.20
2022-10-21T18:46:33.265Z,26.90
2022-10-21T18:49:07.990Z,27.60
2022-10-21T18:51:36.540Z,25.00
2022-10-21T18:54:06.993Z,31.90
2022-10-21T18:56:35.149Z,26.70
2022-10-21T18:59:05.450Z,26.60
2022-10-21T19:01:33.824Z,25.80
2022-10-21T19:04:02.322Z,25.50
2022-10-21T19:06:38.098Z,26.30
2022-10-21T19:09:14.379Z,26.70
2022-10-21T19:11:43.982Z,28.10
2022-10-21T19:14:14.455Z,29.40
2022-10-21T19:16:45.397Z,29.70
2022-10-21T19:19:15.615Z,23.30
2022-10-21T19:21:43.821Z,22.90
2022-10-21T19:24:12.691Z,21.70
2022-10-21T19:26:42.746Z,23.60
2022-10-21T19:29:14.689Z,25.80
2022-10-21T19:31:44.568Z,28.00
2022-10-21T19:34:14.139Z,24.40
2022-10-21T19:36:42.978Z,21.50
2022-10-21T19:39:11.568Z,20.20
2022-10-21T19:41:40.091Z,20.20
2022-10-21T19:44:08.419Z,20.40
2022-10-21T19:46:37.062Z,17.70
2022-10-21T19:49:06.983Z,18.50
2022-10-21T19:51:36.902Z,19.90
2022-10-21T19:54:06.870Z,19.20
2022-10-21T19:56:35.815Z,20.90
2022-10-21T19:59:05.074Z,22.00
2022-10-21T20:01:34.447Z,25.30
2022-10-21T20:04:03.561Z,26.60
2022-10-21T20:06:35.813Z,23.20
2022-10-21T20:09:07.456Z,28.10
2022-10-21T20:11:36.797Z,26.30
2022-10-21T20:14:05.741Z,21.50
2022-10-21T20:16:37.283Z,19.20
2022-10-21T20:19:06.866Z,15.10
2022-10-21T20:21:36.676Z,28.60
2022-10-21T20:24:05.468Z,30.20
2022-10-21T20:26:34.308Z,34.40
2022-10-21T20:29:02.661Z,17.10
2022-10-21T20:31:31.071Z,17.00
2022-10-21T20:33:59.518Z,14.10
2022-10-21T20:36:34.733Z,14.70
2022-10-21T20:39:03.873Z,13.40
2022-10-21T20:41:36.168Z,12.60
2022-10-21T20:44:07.049Z,13.20
2022-10-21T20:46:36.450Z,11.30
2022-10-21T20:49:07.298Z,11.30
2022-10-21T20:51:37.728Z,11.20
2022-10-21T20:54:08.889Z,10.30
2022-10-21T20:56:39.589Z,10.00
2022-10-21T20:59:10.518Z,9.90
2022-10-21T21:01:43.121Z,8.80
2022-10-21T21:04:13.916Z,8.20
2022-10-21T21:06:45.378Z,8.40
2022-10-21T21:09:37.666Z,7.60
2022-10-21T21:12:04.262Z,6.60
2022-10-21T21:14:32.935Z,7.30
2022-10-21T21:17:01.197Z,6.70
2022-10-21T21:19:29.466Z,6.60
2022-10-21T21:21:58.106Z,7.10
2022-10-21T21:24:26.681Z,6.60
2022-10-21T21:26:55.109Z,6.40
2022-10-21T21:29:23.642Z,5.90
2022-10-21T21:31:51.871Z,5.60
2022-10-21T21:34:20.110Z,7.20
2022-10-21T21:36:48.349Z,6.60
2022-10-21T21:39:16.537Z,6.30
2022-10-21T21:41:44.860Z,5.60
2022-10-21T21:44:13.106Z,6.50
2022-10-21T21:46:41.295Z,5.60
2022-10-21T21:49:09.805Z,6.10
2022-10-21T21:51:38.294Z,5.70
2022-10-21T21:54:07.986Z,6.00
2022-10-21T21:56:36.446Z,5.60
2022-10-21T21:59:04.762Z,5.90
2022-10-21T22:01:33.147Z,5.20
2022-10-21T22:04:01.503Z,5.20
2022-10-21T22:06:32.847Z,5.80
2022-10-21T22:09:01.775Z,5.70
2022-10-21T22:11:32.330Z,5.70
2022-10-21T22:14:01.116Z,5.40
2022-10-21T22:16:32.812Z,6.40
2022-10-21T22:19:01.355Z,6.40
2022-10-21T22:21:31.012Z,6.00
2022-10-21T22:23:59.621Z,6.20
2022-10-21T22:26:28.198Z,5.10
2022-10-21T22:28:56.418Z,6.90
2022-10-21T22:31:29.218Z,7.30
2022-10-21T22:34:00.979Z,6.90
2022-10-21T22:36:29.535Z,7.20
2022-10-21T22:38:58.026Z,8.20
2022-10-21T22:41:27.009Z,6.40
2022-10-21T22:43:55.431Z,6.10
2022-10-21T22:46:38.883Z,6.60
2022-10-21T22:49:07.724Z,7.00
2022-10-21T22:51:35.986Z,5.70
2022-10-21T22:54:05.615Z,5.90
2022-10-21T22:56:38.816Z,5.30
2022-10-21T22:59:06.994Z,5.80
2022-10-21T23:01:35.251Z,5.90
2022-10-21T23:04:04.208Z,6.10
2022-10-21T23:06:34.729Z,6.50
2022-10-21T23:09:04.769Z,9.10
2022-10-21T23:11:33.240Z,7.50
2022-10-21T23:14:03.249Z,7.70
2022-10-21T23:19:06.345Z,5.50
2022-10-21T23:21:35.287Z,5.60
2022-10-21T23:24:05.005Z,5.50
2022-10-21T23:26:33.270Z,6.60
2022-10-21T23:29:01.678Z,6.80
2022-10-21T23:31:29.991Z,6.20
2022-10-21T23:33:58.184Z,6.60
2022-10-21T23:36:26.409Z,5.60
2022-10-21T23:38:56.152Z,7.00
2022-10-21T23:41:24.880Z,6.50
2022-10-21T23:43:53.460Z,6.00
2022-10-21T23:46:22.792Z,6.40
2022-10-21T23:48:51.052Z,6.30
2022-10-21T23:51:20.126Z,5.80
2022-10-21T23:53:48.480Z,6.10
2022-10-21T23:56:16.776Z,6.60
2022-10-21T23:58:44.976Z,6.40
